Terminal Aerodrome Forecast
Issued by NWS Charleston, WV

Current Version | Previous Version | Graphics & Text | Print | Product List | Glossary On
Versions: 1 2 3 4 5 6 7 8 9 10 11 12 13 14 15 16 17 18 19 20 21 22
000
FTUS41 KRLX 310547
TAFPKB
TAF
KPKB 310547Z 3106/0106 VRB03KT 6SM BR SCT100
     FM311000 20005KT P6SM BKN050
      TEMPO 3111/3113 5SM -SHRA
     FM311600 22008G15KT P6SM VCTS BKN040CB
     FM312200 21007KT P6SM BKN035 BKN080
     FM010400 33004KT 6SM BR BKN020=

USA.gov is the U.S. government's official web portal to all federal, state and local government web resources and services.